sensor_id;sensor_type;location;lat;lon;timestamp;P1;durP1;ratioP1;P2;durP2;ratioP2
45784;SDS011;31489;51.404;5.474;2023-07-13T00:00:03;6.45;;;1.73;;
45784;SDS011;31489;51.404;5.474;2023-07-13T00:02:34;6.75;;;1.42;;
45784;SDS011;31489;51.404;5.474;2023-07-13T00:05:00;5.38;;;1.55;;
45784;SDS011;31489;51.404;5.474;2023-07-13T00:07:28;3.05;;;1.35;;
45784;SDS011;31489;51.404;5.474;2023-07-13T00:09:56;4.72;;;1.70;;
45784;SDS011;31489;51.404;5.474;2023-07-13T00:12:23;4.18;;;1.50;;
45784;SDS011;31489;51.404;5.474;2023-07-13T00:14:50;4.80;;;1.35;;
45784;SDS011;31489;51.404;5.474;2023-07-13T00:17:16;3.42;;;1.20;;
45784;SDS011;31489;51.404;5.474;2023-07-13T00:19:42;4.35;;;1.45;;
45784;SDS011;31489;51.404;5.474;2023-07-13T00:22:07;4.00;;;1.55;;
45784;SDS011;31489;51.404;5.474;2023-07-13T00:24:33;4.05;;;1.40;;
45784;SDS011;31489;51.404;5.474;2023-07-13T00:27:00;3.38;;;1.20;;
45784;SDS011;31489;51.404;5.474;2023-07-13T00:29:26;4.75;;;1.67;;
45784;SDS011;31489;51.404;5.474;2023-07-13T00:31:52;5.80;;;1.75;;
45784;SDS011;31489;51.404;5.474;2023-07-13T00:34:18;3.60;;;1.40;;
45784;SDS011;31489;51.404;5.474;2023-07-13T00:36:43;7.18;;;1.95;;
45784;SDS011;31489;51.404;5.474;2023-07-13T00:39:09;4.35;;;1.52;;
45784;SDS011;31489;51.404;5.474;2023-07-13T00:41:35;6.00;;;1.58;;
45784;SDS011;31489;51.404;5.474;2023-07-13T00:44:02;5.88;;;1.70;;
45784;SDS011;31489;51.404;5.474;2023-07-13T00:46:31;4.05;;;1.58;;
45784;SDS011;31489;51.404;5.474;2023-07-13T00:49:03;8.35;;;1.98;;
45784;SDS011;31489;51.404;5.474;2023-07-13T00:51:45;6.63;;;1.80;;
45784;SDS011;31489;51.404;5.474;2023-07-13T00:54:17;4.50;;;1.60;;
45784;SDS011;31489;51.404;5.474;2023-07-13T00:56:48;9.40;;;1.70;;
45784;SDS011;31489;51.404;5.474;2023-07-13T00:59:17;7.38;;;1.70;;
45784;SDS011;31489;51.404;5.474;2023-07-13T01:01:44;7.82;;;1.70;;
45784;SDS011;31489;51.404;5.474;2023-07-13T01:04:10;4.60;;;1.60;;
45784;SDS011;31489;51.404;5.474;2023-07-13T01:06:36;6.65;;;1.50;;
45784;SDS011;31489;51.404;5.474;2023-07-13T01:09:04;6.60;;;1.70;;
45784;SDS011;31489;51.404;5.474;2023-07-13T01:11:31;9.55;;;1.90;;
45784;SDS011;31489;51.404;5.474;2023-07-13T01:13:57;5.40;;;1.40;;
45784;SDS011;31489;51.404;5.474;2023-07-13T01:16:27;9.55;;;1.90;;
45784;SDS011;31489;51.404;5.474;2023-07-13T01:18:55;7.85;;;1.85;;
45784;SDS011;31489;51.404;5.474;2023-07-13T01:21:25;3.95;;;1.55;;
45784;SDS011;31489;51.404;5.474;2023-07-13T01:23:55;5.38;;;1.80;;
45784;SDS011;31489;51.404;5.474;2023-07-13T01:26:21;4.55;;;1.70;;
45784;SDS011;31489;51.404;5.474;2023-07-13T01:28:47;6.25;;;1.60;;
45784;SDS011;31489;51.404;5.474;2023-07-13T01:31:13;5.15;;;1.98;;
45784;SDS011;31489;51.404;5.474;2023-07-13T01:33:39;5.22;;;1.55;;
45784;SDS011;31489;51.404;5.474;2023-07-13T01:36:09;5.97;;;1.92;;
45784;SDS011;31489;51.404;5.474;2023-07-13T01:38:35;8.90;;;1.95;;
45784;SDS011;31489;51.404;5.474;2023-07-13T01:41:02;3.58;;;2.05;;
45784;SDS011;31489;51.404;5.474;2023-07-13T01:43:28;4.63;;;1.70;;
45784;SDS011;31489;51.404;5.474;2023-07-13T01:45:54;4.20;;;1.58;;
45784;SDS011;31489;51.404;5.474;2023-07-13T01:48:20;6.43;;;1.83;;
45784;SDS011;31489;51.404;5.474;2023-07-13T01:50:47;5.35;;;1.48;;
45784;SDS011;31489;51.404;5.474;2023-07-13T01:53:13;4.68;;;1.65;;
45784;SDS011;31489;51.404;5.474;2023-07-13T01:55:39;5.47;;;1.63;;
45784;SDS011;31489;51.404;5.474;2023-07-13T01:58:06;5.10;;;1.70;;
45784;SDS011;31489;51.404;5.474;2023-07-13T02:00:32;5.60;;;1.58;;
45784;SDS011;31489;51.404;5.474;2023-07-13T02:02:58;6.72;;;1.90;;
45784;SDS011;31489;51.404;5.474;2023-07-13T02:05:23;7.70;;;1.63;;
45784;SDS011;31489;51.404;5.474;2023-07-13T02:07:49;5.55;;;1.73;;
45784;SDS011;31489;51.404;5.474;2023-07-13T02:10:15;6.28;;;1.70;;
45784;SDS011;31489;51.404;5.474;2023-07-13T02:12:41;3.85;;;1.63;;
45784;SDS011;31489;51.404;5.474;2023-07-13T02:15:07;7.40;;;1.58;;
45784;SDS011;31489;51.404;5.474;2023-07-13T02:17:34;6.55;;;1.67;;
45784;SDS011;31489;51.404;5.474;2023-07-13T02:20:01;5.40;;;2.13;;
45784;SDS011;31489;51.404;5.474;2023-07-13T02:22:27;8.65;;;1.77;;
45784;SDS011;31489;51.404;5.474;2023-07-13T02:24:53;8.52;;;2.17;;
45784;SDS011;31489;51.404;5.474;2023-07-13T02:27:19;8.27;;;2.05;;
45784;SDS011;31489;51.404;5.474;2023-07-13T02:29:44;9.75;;;1.90;;
45784;SDS011;31489;51.404;5.474;2023-07-13T02:32:10;5.13;;;1.77;;
45784;SDS011;31489;51.404;5.474;2023-07-13T02:34:36;7.07;;;2.08;;
45784;SDS011;31489;51.404;5.474;2023-07-13T02:37:02;5.03;;;1.70;;
45784;SDS011;31489;51.404;5.474;2023-07-13T02:39:28;7.88;;;1.73;;
45784;SDS011;31489;51.404;5.474;2023-07-13T02:41:58;6.43;;;1.90;;
45784;SDS011;31489;51.404;5.474;2023-07-13T02:44:25;4.60;;;1.50;;
45784;SDS011;31489;51.404;5.474;2023-07-13T02:46:50;7.47;;;1.77;;
45784;SDS011;31489;51.404;5.474;2023-07-13T02:49:16;6.10;;;1.67;;
45784;SDS011;31489;51.404;5.474;2023-07-13T02:51:42;4.72;;;1.70;;
45784;SDS011;31489;51.404;5.474;2023-07-13T02:54:08;7.22;;;2.08;;
45784;SDS011;31489;51.404;5.474;2023-07-13T02:56:35;6.43;;;1.95;;
45784;SDS011;31489;51.404;5.474;2023-07-13T02:59:00;7.40;;;1.60;;
45784;SDS011;31489;51.404;5.474;2023-07-13T03:01:27;5.68;;;1.90;;
45784;SDS011;31489;51.404;5.474;2023-07-13T03:03:53;6.63;;;1.92;;
45784;SDS011;31489;51.404;5.474;2023-07-13T03:06:19;7.13;;;1.73;;
45784;SDS011;31489;51.404;5.474;2023-07-13T03:08:46;7.57;;;2.05;;
45784;SDS011;31489;51.404;5.474;2023-07-13T03:11:15;6.28;;;2.08;;
45784;SDS011;31489;51.404;5.474;2023-07-13T03:13:43;5.82;;;1.80;;
45784;SDS011;31489;51.404;5.474;2023-07-13T03:16:09;6.57;;;1.85;;
45784;SDS011;31489;51.404;5.474;2023-07-13T03:18:35;5.78;;;1.67;;
45784;SDS011;31489;51.404;5.474;2023-07-13T03:21:02;7.90;;;1.85;;
45784;SDS011;31489;51.404;5.474;2023-07-13T03:23:28;5.82;;;1.95;;
45784;SDS011;31489;51.404;5.474;2023-07-13T03:28:30;5.63;;;1.80;;
45784;SDS011;31489;51.404;5.474;2023-07-13T03:31:07;5.38;;;1.85;;
45784;SDS011;31489;51.404;5.474;2023-07-13T03:33:40;5.15;;;1.80;;
45784;SDS011;31489;51.404;5.474;2023-07-13T03:36:06;8.95;;;2.03;;
45784;SDS011;31489;51.404;5.474;2023-07-13T03:38:33;8.77;;;2.00;;
45784;SDS011;31489;51.404;5.474;2023-07-13T03:40:59;5.65;;;1.80;;
45784;SDS011;31489;51.404;5.474;2023-07-13T03:43:25;5.35;;;1.88;;
45784;SDS011;31489;51.404;5.474;2023-07-13T03:45:51;5.25;;;1.80;;
45784;SDS011;31489;51.404;5.474;2023-07-13T03:48:17;6.00;;;2.00;;
45784;SDS011;31489;51.404;5.474;2023-07-13T03:50:42;8.68;;;2.60;;
45784;SDS011;31489;51.404;5.474;2023-07-13T03:53:08;5.63;;;1.92;;
45784;SDS011;31489;51.404;5.474;2023-07-13T03:55:34;5.72;;;2.40;;
45784;SDS011;31489;51.404;5.474;2023-07-13T04:00:48;4.60;;;1.80;;
45784;SDS011;31489;51.404;5.474;2023-07-13T04:03:15;7.28;;;2.63;;
45784;SDS011;31489;51.404;5.474;2023-07-13T04:05:41;10.27;;;2.60;;
45784;SDS011;31489;51.404;5.474;2023-07-13T04:08:07;5.00;;;2.03;;
45784;SDS011;31489;51.404;5.474;2023-07-13T04:10:33;7.55;;;2.22;;
45784;SDS011;31489;51.404;5.474;2023-07-13T04:12:58;8.30;;;2.80;;
45784;SDS011;31489;51.404;5.474;2023-07-13T04:15:24;7.88;;;2.50;;
45784;SDS011;31489;51.404;5.474;2023-07-13T04:17:50;12.52;;;2.78;;
45784;SDS011;31489;51.404;5.474;2023-07-13T04:20:15;6.90;;;2.90;;
45784;SDS011;31489;51.404;5.474;2023-07-13T04:22:41;10.73;;;3.03;;
45784;SDS011;31489;51.404;5.474;2023-07-13T04:25:07;6.35;;;2.72;;
45784;SDS011;31489;51.404;5.474;2023-07-13T04:27:33;10.30;;;3.15;;
45784;SDS011;31489;51.404;5.474;2023-07-13T04:29:58;9.27;;;2.80;;
45784;SDS011;31489;51.404;5.474;2023-07-13T04:32:24;8.48;;;3.25;;
45784;SDS011;31489;51.404;5.474;2023-07-13T04:34:50;11.32;;;3.22;;
45784;SDS011;31489;51.404;5.474;2023-07-13T04:37:18;10.55;;;3.03;;
45784;SDS011;31489;51.404;5.474;2023-07-13T04:39:45;11.50;;;3.63;;
45784;SDS011;31489;51.404;5.474;2023-07-13T04:42:10;12.00;;;3.53;;
45784;SDS011;31489;51.404;5.474;2023-07-13T04:44:36;10.52;;;3.38;;
45784;SDS011;31489;51.404;5.474;2023-07-13T04:47:02;11.80;;;3.72;;
45784;SDS011;31489;51.404;5.474;2023-07-13T04:49:28;8.35;;;3.70;;
45784;SDS011;31489;51.404;5.474;2023-07-13T04:51:54;9.60;;;3.30;;
45784;SDS011;31489;51.404;5.474;2023-07-13T04:54:20;10.95;;;3.30;;
45784;SDS011;31489;51.404;5.474;2023-07-13T04:56:46;10.60;;;3.67;;
45784;SDS011;31489;51.404;5.474;2023-07-13T04:59:13;15.50;;;6.80;;
45784;SDS011;31489;51.404;5.474;2023-07-13T05:01:38;11.63;;;5.25;;
45784;SDS011;31489;51.404;5.474;2023-07-13T05:04:05;12.52;;;4.15;;
45784;SDS011;31489;51.404;5.474;2023-07-13T05:06:31;13.55;;;4.93;;
45784;SDS011;31489;51.404;5.474;2023-07-13T05:08:57;14.45;;;4.97;;
45784;SDS011;31489;51.404;5.474;2023-07-13T05:11:23;12.20;;;4.47;;
45784;SDS011;31489;51.404;5.474;2023-07-13T05:13:49;11.00;;;4.38;;
45784;SDS011;31489;51.404;5.474;2023-07-13T05:16:14;14.07;;;4.70;;
45784;SDS011;31489;51.404;5.474;2023-07-13T05:18:40;15.43;;;5.20;;
45784;SDS011;31489;51.404;5.474;2023-07-13T05:21:07;12.18;;;4.43;;
45784;SDS011;31489;51.404;5.474;2023-07-13T05:23:34;13.77;;;4.10;;
45784;SDS011;31489;51.404;5.474;2023-07-13T05:26:00;13.00;;;4.22;;
45784;SDS011;31489;51.404;5.474;2023-07-13T05:28:27;11.65;;;4.43;;
45784;SDS011;31489;51.404;5.474;2023-07-13T05:30:53;13.75;;;4.78;;
45784;SDS011;31489;51.404;5.474;2023-07-13T05:33:19;13.23;;;4.57;;
45784;SDS011;31489;51.404;5.474;2023-07-13T05:35:45;12.60;;;4.05;;
45784;SDS011;31489;51.404;5.474;2023-07-13T05:38:11;16.17;;;4.35;;
45784;SDS011;31489;51.404;5.474;2023-07-13T05:40:37;11.27;;;4.25;;
45784;SDS011;31489;51.404;5.474;2023-07-13T05:43:03;12.68;;;4.60;;
45784;SDS011;31489;51.404;5.474;2023-07-13T05:45:29;11.52;;;3.90;;
45784;SDS011;31489;51.404;5.474;2023-07-13T05:47:54;12.48;;;4.45;;
45784;SDS011;31489;51.404;5.474;2023-07-13T05:50:20;12.13;;;4.10;;
45784;SDS011;31489;51.404;5.474;2023-07-13T05:52:46;13.55;;;3.72;;
45784;SDS011;31489;51.404;5.474;2023-07-13T05:55:12;14.70;;;3.67;;
45784;SDS011;31489;51.404;5.474;2023-07-13T05:57:38;16.23;;;4.60;;
45784;SDS011;31489;51.404;5.474;2023-07-13T06:00:04;17.20;;;4.40;;
45784;SDS011;31489;51.404;5.474;2023-07-13T06:02:30;17.05;;;4.28;;
45784;SDS011;31489;51.404;5.474;2023-07-13T06:04:55;12.63;;;3.75;;
45784;SDS011;31489;51.404;5.474;2023-07-13T06:07:21;11.15;;;4.00;;
45784;SDS011;31489;51.404;5.474;2023-07-13T06:09:47;10.65;;;4.25;;
45784;SDS011;31489;51.404;5.474;2023-07-13T06:12:12;11.75;;;3.85;;
45784;SDS011;31489;51.404;5.474;2023-07-13T06:14:38;16.45;;;4.70;;
45784;SDS011;31489;51.404;5.474;2023-07-13T06:17:04;13.15;;;5.03;;
45784;SDS011;31489;51.404;5.474;2023-07-13T06:19:30;15.52;;;5.05;;
45784;SDS011;31489;51.404;5.474;2023-07-13T06:21:56;13.50;;;5.25;;
45784;SDS011;31489;51.404;5.474;2023-07-13T06:24:23;12.02;;;4.38;;
45784;SDS011;31489;51.404;5.474;2023-07-13T06:26:49;13.63;;;5.38;;
45784;SDS011;31489;51.404;5.474;2023-07-13T06:29:15;13.57;;;4.97;;
45784;SDS011;31489;51.404;5.474;2023-07-13T06:31:40;17.00;;;5.03;;
45784;SDS011;31489;51.404;5.474;2023-07-13T06:34:06;16.02;;;5.05;;
45784;SDS011;31489;51.404;5.474;2023-07-13T06:36:32;11.48;;;4.38;;
45784;SDS011;31489;51.404;5.474;2023-07-13T06:38:57;13.90;;;4.95;;
45784;SDS011;31489;51.404;5.474;2023-07-13T06:41:23;13.90;;;5.05;;
45784;SDS011;31489;51.404;5.474;2023-07-13T06:43:51;14.55;;;4.75;;
45784;SDS011;31489;51.404;5.474;2023-07-13T06:46:17;12.38;;;4.75;;
45784;SDS011;31489;51.404;5.474;2023-07-13T06:48:43;11.88;;;5.10;;
45784;SDS011;31489;51.404;5.474;2023-07-13T06:51:09;13.57;;;4.85;;
45784;SDS011;31489;51.404;5.474;2023-07-13T06:53:34;15.13;;;5.32;;
45784;SDS011;31489;51.404;5.474;2023-07-13T06:56:00;17.05;;;4.88;;
45784;SDS011;31489;51.404;5.474;2023-07-13T06:58:26;18.88;;;5.13;;
45784;SDS011;31489;51.404;5.474;2023-07-13T07:00:52;11.80;;;4.47;;
45784;SDS011;31489;51.404;5.474;2023-07-13T07:03:17;15.50;;;4.97;;
45784;SDS011;31489;51.404;5.474;2023-07-13T07:05:43;14.68;;;4.65;;
45784;SDS011;31489;51.404;5.474;2023-07-13T07:08:11;12.27;;;4.65;;
45784;SDS011;31489;51.404;5.474;2023-07-13T07:10:37;24.60;;;5.68;;
45784;SDS011;31489;51.404;5.474;2023-07-13T07:13:03;14.02;;;5.05;;
45784;SDS011;31489;51.404;5.474;2023-07-13T07:15:29;11.15;;;4.45;;
45784;SDS011;31489;51.404;5.474;2023-07-13T07:17:55;13.18;;;4.60;;
45784;SDS011;31489;51.404;5.474;2023-07-13T07:20:20;12.70;;;4.43;;
45784;SDS011;31489;51.404;5.474;2023-07-13T07:22:46;13.05;;;4.80;;
45784;SDS011;31489;51.404;5.474;2023-07-13T07:25:13;9.38;;;3.75;;
45784;SDS011;31489;51.404;5.474;2023-07-13T07:27:38;12.70;;;4.13;;
45784;SDS011;31489;51.404;5.474;2023-07-13T07:30:04;13.55;;;4.22;;
45784;SDS011;31489;51.404;5.474;2023-07-13T07:32:30;12.30;;;3.97;;
45784;SDS011;31489;51.404;5.474;2023-07-13T07:34:57;12.10;;;4.35;;
45784;SDS011;31489;51.404;5.474;2023-07-13T07:37:23;15.88;;;4.40;;
45784;SDS011;31489;51.404;5.474;2023-07-13T07:39:49;16.27;;;4.55;;
45784;SDS011;31489;51.404;5.474;2023-07-13T07:42:15;9.35;;;4.00;;
45784;SDS011;31489;51.404;5.474;2023-07-13T07:44:41;11.02;;;3.90;;
45784;SDS011;31489;51.404;5.474;2023-07-13T07:47:07;9.98;;;3.88;;
45784;SDS011;31489;51.404;5.474;2023-07-13T07:49:34;9.15;;;3.70;;
45784;SDS011;31489;51.404;5.474;2023-07-13T07:52:00;9.68;;;3.50;;
45784;SDS011;31489;51.404;5.474;2023-07-13T07:54:28;11.63;;;3.97;;
45784;SDS011;31489;51.404;5.474;2023-07-13T07:56:54;8.80;;;3.38;;
45784;SDS011;31489;51.404;5.474;2023-07-13T07:59:19;8.52;;;3.22;;
45784;SDS011;31489;51.404;5.474;2023-07-13T08:01:45;12.55;;;3.65;;
45784;SDS011;31489;51.404;5.474;2023-07-13T08:04:13;10.85;;;3.63;;
45784;SDS011;31489;51.404;5.474;2023-07-13T08:06:38;11.93;;;3.50;;
45784;SDS011;31489;51.404;5.474;2023-07-13T08:09:04;14.40;;;3.55;;
45784;SDS011;31489;51.404;5.474;2023-07-13T08:11:30;13.18;;;3.95;;
45784;SDS011;31489;51.404;5.474;2023-07-13T08:13:56;10.73;;;3.28;;
45784;SDS011;31489;51.404;5.474;2023-07-13T08:16:22;11.52;;;3.22;;
45784;SDS011;31489;51.404;5.474;2023-07-13T08:18:49;13.35;;;3.08;;
45784;SDS011;31489;51.404;5.474;2023-07-13T08:21:15;8.63;;;3.17;;
45784;SDS011;31489;51.404;5.474;2023-07-13T08:23:40;8.52;;;2.97;;
45784;SDS011;31489;51.404;5.474;2023-07-13T08:26:06;9.75;;;3.22;;
45784;SDS011;31489;51.404;5.474;2023-07-13T08:28:33;7.05;;;2.95;;
45784;SDS011;31489;51.404;5.474;2023-07-13T08:31:05;7.72;;;2.83;;
45784;SDS011;31489;51.404;5.474;2023-07-13T08:33:35;8.82;;;3.03;;
45784;SDS011;31489;51.404;5.474;2023-07-13T08:36:03;10.07;;;2.95;;
45784;SDS011;31489;51.404;5.474;2023-07-13T08:38:30;8.60;;;3.00;;
45784;SDS011;31489;51.404;5.474;2023-07-13T08:40:56;7.50;;;3.03;;
45784;SDS011;31489;51.404;5.474;2023-07-13T08:43:26;9.02;;;2.92;;
45784;SDS011;31489;51.404;5.474;2023-07-13T08:48:34;8.77;;;3.13;;
45784;SDS011;31489;51.404;5.474;2023-07-13T08:53:57;9.13;;;3.17;;
45784;SDS011;31489;51.404;5.474;2023-07-13T08:56:27;7.25;;;3.00;;
45784;SDS011;31489;51.404;5.474;2023-07-13T08:58:56;13.20;;;2.75;;
45784;SDS011;31489;51.404;5.474;2023-07-13T09:04:10;7.28;;;2.50;;
45784;SDS011;31489;51.404;5.474;2023-07-13T09:09:57;8.82;;;2.78;;
45784;SDS011;31489;51.404;5.474;2023-07-13T09:12:14;6.68;;;2.38;;
45784;SDS011;31489;51.404;5.474;2023-07-13T09:14:47;7.40;;;2.22;;
45784;SDS011;31489;51.404;5.474;2023-07-13T09:17:20;7.60;;;2.58;;
45784;SDS011;31489;51.404;5.474;2023-07-13T09:19:53;9.10;;;3.07;;
45784;SDS011;31489;51.404;5.474;2023-07-13T09:22:25;7.15;;;2.60;;
45784;SDS011;31489;51.404;5.474;2023-07-13T09:24:55;12.93;;;2.40;;
45784;SDS011;31489;51.404;5.474;2023-07-13T09:27:45;9.48;;;2.58;;
45784;SDS011;31489;51.404;5.474;2023-07-13T09:32:39;9.23;;;2.47;;
45784;SDS011;31489;51.404;5.474;2023-07-13T09:35:16;8.52;;;2.70;;
45784;SDS011;31489;51.404;5.474;2023-07-13T09:37:46;8.13;;;2.72;;
45784;SDS011;31489;51.404;5.474;2023-07-13T09:43:13;6.05;;;2.40;;
45784;SDS011;31489;51.404;5.474;2023-07-13T09:45:40;9.07;;;3.20;;
45784;SDS011;31489;51.404;5.474;2023-07-13T09:48:13;7.47;;;2.67;;
45784;SDS011;31489;51.404;5.474;2023-07-13T09:50:40;9.00;;;2.60;;
45784;SDS011;31489;51.404;5.474;2023-07-13T09:53:17;5.05;;;2.10;;
45784;SDS011;31489;51.404;5.474;2023-07-13T09:55:45;7.05;;;2.40;;
45784;SDS011;31489;51.404;5.474;2023-07-13T09:58:19;8.50;;;2.70;;
45784;SDS011;31489;51.404;5.474;2023-07-13T10:01:21;6.82;;;2.42;;
45784;SDS011;31489;51.404;5.474;2023-07-13T10:03:42;10.77;;;2.72;;
45784;SDS011;31489;51.404;5.474;2023-07-13T10:06:19;8.50;;;2.40;;
45784;SDS011;31489;51.404;5.474;2023-07-13T10:08:51;5.50;;;2.20;;
45784;SDS011;31489;51.404;5.474;2023-07-13T10:11:19;6.38;;;2.40;;
45784;SDS011;31489;51.404;5.474;2023-07-13T10:13:57;9.75;;;2.58;;
45784;SDS011;31489;51.404;5.474;2023-07-13T10:16:25;8.55;;;2.45;;
45784;SDS011;31489;51.404;5.474;2023-07-13T10:18:58;9.82;;;2.35;;
45784;SDS011;31489;51.404;5.474;2023-07-13T10:21:56;8.88;;;2.92;;
45784;SDS011;31489;51.404;5.474;2023-07-13T10:24:32;7.22;;;2.33;;
45784;SDS011;31489;51.404;5.474;2023-07-13T10:29:40;6.22;;;2.50;;
45784;SDS011;31489;51.404;5.474;2023-07-13T10:32:11;8.02;;;2.67;;
45784;SDS011;31489;51.404;5.474;2023-07-13T10:34:38;9.13;;;1.98;;
45784;SDS011;31489;51.404;5.474;2023-07-13T10:37:07;5.25;;;2.10;;
45784;SDS011;31489;51.404;5.474;2023-07-13T10:39:48;6.68;;;2.30;;
45784;SDS011;31489;51.404;5.474;2023-07-13T10:42:20;5.53;;;1.90;;
45784;SDS011;31489;51.404;5.474;2023-07-13T10:44:54;4.45;;;1.80;;
45784;SDS011;31489;51.404;5.474;2023-07-13T10:47:19;4.72;;;2.03;;
45784;SDS011;31489;51.404;5.474;2023-07-13T10:49:45;5.03;;;2.00;;
45784;SDS011;31489;51.404;5.474;2023-07-13T10:55:31;4.68;;;1.77;;
45784;SDS011;31489;51.404;5.474;2023-07-13T11:01:09;8.02;;;1.55;;
45784;SDS011;31489;51.404;5.474;2023-07-13T11:08:37;7.57;;;1.95;;
45784;SDS011;31489;51.404;5.474;2023-07-13T11:14:00;6.40;;;2.10;;
45784;SDS011;31489;51.404;5.474;2023-07-13T11:16:34;6.70;;;2.10;;
45784;SDS011;31489;51.404;5.474;2023-07-13T11:21:27;6.20;;;2.03;;
45784;SDS011;31489;51.404;5.474;2023-07-13T11:31:43;3.90;;;1.60;;
45784;SDS011;31489;51.404;5.474;2023-07-13T11:34:19;8.80;;;2.10;;
45784;SDS011;31489;51.404;5.474;2023-07-13T11:36:50;5.40;;;2.25;;
45784;SDS011;31489;51.404;5.474;2023-07-13T11:39:18;3.92;;;1.55;;
45784;SDS011;31489;51.404;5.474;2023-07-13T11:41:55;5.45;;;1.85;;
45784;SDS011;31489;51.404;5.474;2023-07-13T11:44:23;5.85;;;1.98;;
45784;SDS011;31489;51.404;5.474;2023-07-13T11:46:51;5.53;;;2.15;;
45784;SDS011;31489;51.404;5.474;2023-07-13T11:49:20;4.63;;;1.88;;
45784;SDS011;31489;51.404;5.474;2023-07-13T11:51:50;6.00;;;1.80;;
45784;SDS011;31489;51.404;5.474;2023-07-13T11:59:59;4.95;;;1.63;;
45784;SDS011;31489;51.404;5.474;2023-07-13T12:02:37;3.53;;;1.60;;
45784;SDS011;31489;51.404;5.474;2023-07-13T12:05:06;4.25;;;1.67;;
45784;SDS011;31489;51.404;5.474;2023-07-13T12:07:37;3.67;;;1.63;;
45784;SDS011;31489;51.404;5.474;2023-07-13T12:12:46;4.32;;;1.60;;
45784;SDS011;31489;51.404;5.474;2023-07-13T12:15:14;7.28;;;1.80;;
45784;SDS011;31489;51.404;5.474;2023-07-13T12:17:40;4.38;;;1.48;;
45784;SDS011;31489;51.404;5.474;2023-07-13T12:20:26;3.88;;;1.73;;
45784;SDS011;31489;51.404;5.474;2023-07-13T12:22:54;3.70;;;1.65;;
45784;SDS011;31489;51.404;5.474;2023-07-13T12:25:20;3.60;;;1.38;;
45784;SDS011;31489;51.404;5.474;2023-07-13T12:27:54;3.80;;;1.70;;
45784;SDS011;31489;51.404;5.474;2023-07-13T12:30:25;6.75;;;2.00;;
45784;SDS011;31489;51.404;5.474;2023-07-13T12:32:57;3.10;;;1.75;;
45784;SDS011;31489;51.404;5.474;2023-07-13T12:35:23;2.47;;;1.40;;
45784;SDS011;31489;51.404;5.474;2023-07-13T12:37:50;6.07;;;1.63;;
45784;SDS011;31489;51.404;5.474;2023-07-13T12:40:21;9.98;;;1.65;;
45784;SDS011;31489;51.404;5.474;2023-07-13T12:42:52;7.20;;;2.00;;
45784;SDS011;31489;51.404;5.474;2023-07-13T12:45:21;4.40;;;1.77;;
45784;SDS011;31489;51.404;5.474;2023-07-13T12:48:03;6.97;;;1.77;;
45784;SDS011;31489;51.404;5.474;2023-07-13T12:50:37;4.18;;;1.70;;
45784;SDS011;31489;51.404;5.474;2023-07-13T12:53:14;3.70;;;1.80;;
45784;SDS011;31489;51.404;5.474;2023-07-13T12:55:44;6.22;;;2.00;;
45784;SDS011;31489;51.404;5.474;2023-07-13T12:58:25;3.22;;;1.80;;
45784;SDS011;31489;51.404;5.474;2023-07-13T13:01:01;5.50;;;2.15;;
45784;SDS011;31489;51.404;5.474;2023-07-13T13:06:20;4.22;;;1.95;;
45784;SDS011;31489;51.404;5.474;2023-07-13T13:08:45;4.13;;;2.08;;
45784;SDS011;31489;51.404;5.474;2023-07-13T13:11:18;3.70;;;1.88;;
45784;SDS011;31489;51.404;5.474;2023-07-13T13:13:45;6.38;;;2.00;;
45784;SDS011;31489;51.404;5.474;2023-07-13T13:18:52;5.70;;;2.08;;
45784;SDS011;31489;51.404;5.474;2023-07-13T13:21:20;6.70;;;1.90;;
45784;SDS011;31489;51.404;5.474;2023-07-13T13:23:46;3.95;;;1.95;;
45784;SDS011;31489;51.404;5.474;2023-07-13T13:26:13;4.78;;;2.00;;
45784;SDS011;31489;51.404;5.474;2023-07-13T13:28:43;5.90;;;2.63;;
45784;SDS011;31489;51.404;5.474;2023-07-13T13:31:09;5.32;;;2.58;;
45784;SDS011;31489;51.404;5.474;2023-07-13T13:33:40;5.05;;;2.13;;
45784;SDS011;31489;51.404;5.474;2023-07-13T13:36:15;4.68;;;2.25;;
45784;SDS011;31489;51.404;5.474;2023-07-13T13:38:42;5.82;;;2.15;;
45784;SDS011;31489;51.404;5.474;2023-07-13T13:41:11;4.75;;;2.20;;
45784;SDS011;31489;51.404;5.474;2023-07-13T13:43:39;5.47;;;2.47;;
45784;SDS011;31489;51.404;5.474;2023-07-13T13:46:11;3.30;;;2.10;;
45784;SDS011;31489;51.404;5.474;2023-07-13T13:48:43;4.70;;;2.03;;
45784;SDS011;31489;51.404;5.474;2023-07-13T13:51:14;3.17;;;2.17;;
45784;SDS011;31489;51.404;5.474;2023-07-13T13:53:41;4.57;;;2.10;;
45784;SDS011;31489;51.404;5.474;2023-07-13T13:56:08;6.22;;;2.03;;
45784;SDS011;31489;51.404;5.474;2023-07-13T13:58:33;3.15;;;1.90;;
45784;SDS011;31489;51.404;5.474;2023-07-13T14:00:59;4.43;;;1.92;;
45784;SDS011;31489;51.404;5.474;2023-07-13T14:03:25;5.40;;;2.40;;
45784;SDS011;31489;51.404;5.474;2023-07-13T14:05:53;3.97;;;2.17;;
45784;SDS011;31489;51.404;5.474;2023-07-13T14:08:19;8.52;;;2.33;;
45784;SDS011;31489;51.404;5.474;2023-07-13T14:10:48;4.55;;;2.33;;
45784;SDS011;31489;51.404;5.474;2023-07-13T14:13:18;4.82;;;2.05;;
45784;SDS011;31489;51.404;5.474;2023-07-13T14:15:47;3.10;;;1.90;;
45784;SDS011;31489;51.404;5.474;2023-07-13T14:18:13;5.85;;;2.10;;
45784;SDS011;31489;51.404;5.474;2023-07-13T14:20:43;3.15;;;1.65;;
45784;SDS011;31489;51.404;5.474;2023-07-13T14:23:13;3.30;;;1.73;;
45784;SDS011;31489;51.404;5.474;2023-07-13T14:25:41;3.97;;;1.73;;
45784;SDS011;31489;51.404;5.474;2023-07-13T14:28:14;3.03;;;1.73;;
45784;SDS011;31489;51.404;5.474;2023-07-13T14:30:42;4.32;;;2.00;;
45784;SDS011;31489;51.404;5.474;2023-07-13T14:33:08;2.47;;;1.42;;
45784;SDS011;31489;51.404;5.474;2023-07-13T14:35:36;5.50;;;1.90;;
45784;SDS011;31489;51.404;5.474;2023-07-13T14:38:03;3.38;;;1.77;;
45784;SDS011;31489;51.404;5.474;2023-07-13T14:40:30;2.85;;;1.70;;
45784;SDS011;31489;51.404;5.474;2023-07-13T14:42:56;4.13;;;1.60;;
45784;SDS011;31489;51.404;5.474;2023-07-13T14:45:23;2.78;;;1.48;;
45784;SDS011;31489;51.404;5.474;2023-07-13T14:47:50;2.65;;;1.60;;
45784;SDS011;31489;51.404;5.474;2023-07-13T14:50:17;2.88;;;1.58;;
45784;SDS011;31489;51.404;5.474;2023-07-13T14:52:45;3.53;;;1.50;;
45784;SDS011;31489;51.404;5.474;2023-07-13T14:55:13;2.65;;;1.50;;
45784;SDS011;31489;51.404;5.474;2023-07-13T14:57:40;3.83;;;1.65;;
45784;SDS011;31489;51.404;5.474;2023-07-13T15:00:13;2.97;;;1.90;;
45784;SDS011;31489;51.404;5.474;2023-07-13T15:02:40;2.67;;;1.60;;
45784;SDS011;31489;51.404;5.474;2023-07-13T15:05:20;2.45;;;1.30;;
45784;SDS011;31489;51.404;5.474;2023-07-13T15:07:52;3.53;;;1.50;;
45784;SDS011;31489;51.404;5.474;2023-07-13T15:10:20;3.40;;;1.42;;
45784;SDS011;31489;51.404;5.474;2023-07-13T15:12:47;5.55;;;1.38;;
45784;SDS011;31489;51.404;5.474;2023-07-13T15:15:13;3.38;;;1.70;;
45784;SDS011;31489;51.404;5.474;2023-07-13T15:17:40;3.17;;;1.58;;
45784;SDS011;31489;51.404;5.474;2023-07-13T15:20:23;2.13;;;1.30;;
45784;SDS011;31489;51.404;5.474;2023-07-13T15:22:49;4.07;;;1.50;;
45784;SDS011;31489;51.404;5.474;2023-07-13T15:25:16;3.05;;;1.40;;
45784;SDS011;31489;51.404;5.474;2023-07-13T15:27:43;3.58;;;1.50;;
45784;SDS011;31489;51.404;5.474;2023-07-13T15:30:12;3.42;;;1.73;;
45784;SDS011;31489;51.404;5.474;2023-07-13T15:32:39;4.47;;;1.58;;
45784;SDS011;31489;51.404;5.474;2023-07-13T15:35:12;3.00;;;2.00;;
45784;SDS011;31489;51.404;5.474;2023-07-13T15:37:43;5.30;;;2.10;;
45784;SDS011;31489;51.404;5.474;2023-07-13T15:40:09;3.38;;;1.80;;
45784;SDS011;31489;51.404;5.474;2023-07-13T15:42:36;2.90;;;1.70;;
45784;SDS011;31489;51.404;5.474;2023-07-13T15:45:10;3.75;;;2.00;;
45784;SDS011;31489;51.404;5.474;2023-07-13T15:47:44;5.88;;;2.17;;
45784;SDS011;31489;51.404;5.474;2023-07-13T15:50:14;5.63;;;2.00;;